Time;durP1;ratioP1;P1;durP2;ratioP2;P2;SDS_P1;SDS_P2;PMS_P1;PMS_P2;Temp;Humidity;BMP_temperature;BMP_pressure;BME280_temperature;BME280_humidity;BME280_pressure;Samples;Min_cycle;Max_cycle;Signal;HPM_P1;HPM_P2
2023/09/08 00:02:25;;;;;;;5.63;5.13;;;;;;;;;;4953121;28;20179;-69
2023/09/08 00:04:50;;;;;;;7.83;5.53;;;;;;;;;;4972074;28;20209;-70
2023/09/08 00:07:15;;;;;;;5.87;5.27;;;;;;;;;;4958572;28;20186;-70
2023/09/08 00:09:40;;;;;;;5.53;5.03;;;;;;;;;;4971587;28;20187;-70
2023/09/08 00:12:06;;;;;;;6.03;5.53;;;;;;;;;;4971768;28;20189;-69
2023/09/08 00:14:31;;;;;;;7.80;5.60;;;;;;;;;;4956862;28;20187;-70
2023/09/08 00:16:57;;;;;;;5.77;5.17;;;;;;;;;;4971273;28;20203;-69
2023/09/08 00:19:25;;;;;;;5.57;5.03;;;;;;;;;;4969148;28;20607;-69
2023/09/08 00:21:50;;;;;;;5.80;5.30;;;;;;;;;;4972169;28;20240;-70
2023/09/08 00:24:16;;;;;;;5.70;5.17;;;;;;;;;;4952609;28;20179;-70
2023/09/08 00:26:41;;;;;;;5.67;5.17;;;;;;;;;;4971522;28;20240;-70
2023/09/08 00:29:06;;;;;;;5.30;4.90;;;;;;;;;;4972911;28;20251;-70
2023/09/08 00:31:32;;;;;;;6.33;5.27;;;;;;;;;;4971718;28;20190;-70
2023/09/08 00:33:58;;;;;;;5.90;5.37;;;;;;;;;;4948900;28;20208;-69
2023/09/08 00:36:23;;;;;;;6.17;5.50;;;;;;;;;;4953728;28;20269;-70
2023/09/08 00:38:48;;;;;;;6.80;5.70;;;;;;;;;;4972913;28;20199;-70
2023/09/08 00:41:13;;;;;;;4.90;4.50;;;;;;;;;;4972104;28;20173;-70
2023/09/08 00:43:38;;;;;;;5.63;5.20;;;;;;;;;;4957080;28;20228;-69
2023/09/08 00:46:04;;;;;;;5.50;4.90;;;;;;;;;;4972445;28;20171;-70
2023/09/08 00:48:29;;;;;;;6.50;5.63;;;;;;;;;;4964341;28;20239;-70
2023/09/08 00:50:55;;;;;;;6.03;5.40;;;;;;;;;;4968699;28;20210;-69
2023/09/08 00:53:20;;;;;;;5.87;5.37;;;;;;;;;;4972304;28;20264;-70
2023/09/08 00:55:46;;;;;;;5.60;5.10;;;;;;;;;;4971998;28;20368;-70
2023/09/08 00:58:11;;;;;;;6.07;5.57;;;;;;;;;;4971339;28;20194;-69
2023/09/08 01:00:36;;;;;;;7.97;5.40;;;;;;;;;;4954744;28;20177;-70
2023/09/08 01:03:02;;;;;;;5.60;4.77;;;;;;;;;;4956337;28;20182;-70
2023/09/08 01:05:27;;;;;;;6.13;5.53;;;;;;;;;;4954992;28;20188;-69
2023/09/08 01:07:53;;;;;;;5.63;5.00;;;;;;;;;;4970396;28;20188;-70
2023/09/08 01:10:18;;;;;;;8.07;5.57;;;;;;;;;;4970337;28;20178;-70
2023/09/08 01:12:44;;;;;;;5.67;5.17;;;;;;;;;;4954445;28;20187;-70
2023/09/08 01:15:09;;;;;;;5.67;5.17;;;;;;;;;;4955298;28;20436;-70
2023/09/08 01:17:35;;;;;;;6.33;4.63;;;;;;;;;;4972680;28;20245;-70
2023/09/08 01:20:02;;;;;;;9.73;5.13;;;;;;;;;;4955060;28;20174;-69
2023/09/08 01:22:46;;;;;;;5.20;4.80;;;;;;;;;;4971064;28;20169;-69
2023/09/08 01:25:11;;;;;;;5.93;5.43;;;;;;;;;;4967961;28;20181;-68
2023/09/08 01:27:37;;;;;;;6.17;5.07;;;;;;;;;;4971071;28;20173;-70
2023/09/08 01:30:04;;;;;;;5.97;4.90;;;;;;;;;;4954335;28;20292;-70
2023/09/08 01:32:29;;;;;;;6.17;5.40;;;;;;;;;;4953191;28;20177;-69
2023/09/08 01:34:56;;;;;;;6.77;5.50;;;;;;;;;;4966871;28;20203;-70
2023/09/08 01:37:24;;;;;;;5.47;4.73;;;;;;;;;;4972863;28;20231;-70
2023/09/08 01:39:49;;;;;;;6.37;5.77;;;;;;;;;;4969928;28;20195;-69
2023/09/08 01:42:14;;;;;;;9.03;5.83;;;;;;;;;;4971377;28;20168;-69
2023/09/08 01:44:40;;;;;;;6.07;5.30;;;;;;;;;;4969597;28;20176;-69
2023/09/08 01:47:05;;;;;;;6.30;5.67;;;;;;;;;;4972356;28;20179;-69
2023/09/08 01:49:30;;;;;;;6.33;5.73;;;;;;;;;;4969036;28;20247;-70
2023/09/08 01:51:56;;;;;;;6.60;5.73;;;;;;;;;;4954484;28;20187;-69
2023/09/08 01:54:21;;;;;;;6.50;5.57;;;;;;;;;;4952341;28;20174;-69
2023/09/08 01:56:46;;;;;;;7.87;5.83;;;;;;;;;;4972422;28;20207;-70
2023/09/08 01:59:11;;;;;;;6.60;5.63;;;;;;;;;;4952255;28;20186;-70
2023/09/08 02:01:36;;;;;;;6.43;5.83;;;;;;;;;;4959782;28;20181;-70
2023/09/08 02:04:02;;;;;;;7.57;5.50;;;;;;;;;;4955191;28;20169;-69
2023/09/08 02:06:27;;;;;;;6.50;5.37;;;;;;;;;;4966531;28;20195;-69
2023/09/08 02:08:52;;;;;;;6.70;5.70;;;;;;;;;;4968080;28;20177;-69
2023/09/08 02:11:17;;;;;;;7.00;5.80;;;;;;;;;;4970248;28;20208;-69
2023/09/08 02:13:42;;;;;;;6.23;5.63;;;;;;;;;;4954906;28;20206;-69
2023/09/08 02:16:12;;;;;;;7.03;5.73;;;;;;;;;;4953682;28;20224;-69
2023/09/08 02:18:38;;;;;;;6.37;5.77;;;;;;;;;;4953542;28;20177;-69
2023/09/08 02:21:04;;;;;;;8.20;5.70;;;;;;;;;;4950425;28;20252;-69
2023/09/08 02:23:29;;;;;;;7.20;5.93;;;;;;;;;;4952587;28;20206;-70
2023/09/08 02:25:54;;;;;;;6.73;6.10;;;;;;;;;;4954092;28;20280;-69
2023/09/08 02:28:20;;;;;;;7.03;6.33;;;;;;;;;;4968837;28;20176;-69
2023/09/08 02:30:45;;;;;;;5.63;5.13;;;;;;;;;;4952156;28;20187;-69
2023/09/08 02:33:10;;;;;;;6.40;5.80;;;;;;;;;;4967614;28;20176;-70
2023/09/08 02:35:37;;;;;;;5.77;5.27;;;;;;;;;;4953298;28;20182;-69
2023/09/08 02:38:02;;;;;;;6.47;5.77;;;;;;;;;;4949960;28;20196;-69
2023/09/08 02:40:27;;;;;;;7.60;6.80;;;;;;;;;;4954077;28;20184;-69
2023/09/08 02:42:53;;;;;;;6.60;5.20;;;;;;;;;;4970465;28;20515;-69
2023/09/08 02:45:18;;;;;;;6.57;5.97;;;;;;;;;;4970984;28;20175;-69
2023/09/08 02:47:43;;;;;;;5.83;5.27;;;;;;;;;;4970627;28;20192;-69
2023/09/08 02:50:08;;;;;;;6.67;6.07;;;;;;;;;;4950729;28;20278;-69
2023/09/08 02:52:34;;;;;;;5.90;5.40;;;;;;;;;;4967899;28;20196;-69
2023/09/08 02:54:59;;;;;;;5.47;5.07;;;;;;;;;;4952918;28;20191;-69
2023/09/08 02:57:24;;;;;;;6.27;5.47;;;;;;;;;;4953367;28;20206;-69
2023/09/08 02:59:51;;;;;;;5.97;5.37;;;;;;;;;;4970420;28;20183;-70
2023/09/08 03:02:16;;;;;;;6.40;5.90;;;;;;;;;;4953281;28;20266;-69
2023/09/08 03:04:41;;;;;;;5.80;5.30;;;;;;;;;;4963895;28;20255;-70
2023/09/08 03:07:06;;;;;;;6.40;5.30;;;;;;;;;;4965607;28;20190;-69
2023/09/08 03:09:33;;;;;;;6.23;5.43;;;;;;;;;;4952441;28;20182;-69
2023/09/08 03:11:58;;;;;;;5.50;4.90;;;;;;;;;;4970577;28;20177;-69
2023/09/08 03:14:24;;;;;;;6.20;5.60;;;;;;;;;;4952682;28;20194;-69
2023/09/08 03:16:49;;;;;;;6.87;6.27;;;;;;;;;;4970652;28;20198;-69
2023/09/08 03:19:14;;;;;;;9.30;6.20;;;;;;;;;;4953061;28;20176;-69
2023/09/08 03:21:39;;;;;;;7.93;6.60;;;;;;;;;;4969223;28;20258;-69
2023/09/08 03:24:05;;;;;;;6.73;5.80;;;;;;;;;;4954121;28;20175;-69
2023/09/08 03:26:30;;;;;;;6.63;6.03;;;;;;;;;;4951573;28;20179;-68
2023/09/08 03:28:55;;;;;;;6.40;5.80;;;;;;;;;;4953258;28;20179;-69
2023/09/08 03:31:20;;;;;;;7.10;5.60;;;;;;;;;;4953817;28;20183;-69
2023/09/08 03:33:46;;;;;;;6.50;5.90;;;;;;;;;;4953511;28;20174;-68
2023/09/08 03:36:11;;;;;;;7.67;6.97;;;;;;;;;;4969356;28;20201;-69
2023/09/08 03:38:37;;;;;;;7.03;6.33;;;;;;;;;;4952144;28;20199;-69
2023/09/08 03:41:02;;;;;;;7.30;6.13;;;;;;;;;;4968822;28;20190;-70
2023/09/08 03:43:28;;;;;;;7.40;5.87;;;;;;;;;;4951541;28;20184;-69
2023/09/08 03:45:53;;;;;;;6.60;6.00;;;;;;;;;;4966068;28;20180;-70
2023/09/08 03:48:18;;;;;;;6.00;5.37;;;;;;;;;;4952512;28;20230;-69
2023/09/08 03:50:45;;;;;;;6.07;5.57;;;;;;;;;;4951682;28;20201;-69
2023/09/08 03:53:11;;;;;;;6.57;5.97;;;;;;;;;;4952915;28;20179;-69
2023/09/08 03:55:36;;;;;;;8.03;7.23;;;;;;;;;;4972982;28;20268;-69
2023/09/08 03:58:02;;;;;;;7.77;7.07;;;;;;;;;;4973191;28;20286;-69
2023/09/08 04:00:27;;;;;;;8.23;7.07;;;;;;;;;;4973206;28;20176;-69
2023/09/08 04:02:52;;;;;;;6.10;5.50;;;;;;;;;;4957097;28;20201;-69
2023/09/08 04:05:17;;;;;;;7.27;6.67;;;;;;;;;;4972127;28;20170;-70
2023/09/08 04:07:43;;;;;;;8.83;8.03;;;;;;;;;;4957311;28;20196;-70
2023/09/08 04:10:09;;;;;;;14.47;7.93;;;;;;;;;;4955839;28;20274;-69
2023/09/08 04:12:34;;;;;;;7.93;7.23;;;;;;;;;;4971394;28;20308;-69
2023/09/08 04:14:59;;;;;;;8.13;7.43;;;;;;;;;;4971097;28;20179;-69
2023/09/08 04:17:24;;;;;;;7.87;7.17;;;;;;;;;;4971515;28;20191;-69
2023/09/08 04:19:49;;;;;;;8.47;7.17;;;;;;;;;;4973230;28;20175;-69
2023/09/08 04:22:15;;;;;;;8.10;7.30;;;;;;;;;;4953686;28;20181;-69
2023/09/08 04:24:40;;;;;;;7.57;6.77;;;;;;;;;;4953419;28;20242;-70
2023/09/08 04:27:05;;;;;;;7.60;7.00;;;;;;;;;;4955792;28;20183;-69
2023/09/08 04:29:30;;;;;;;13.83;8.20;;;;;;;;;;4972812;28;20185;-68
2023/09/08 04:31:55;;;;;;;9.30;7.27;;;;;;;;;;4973327;28;20175;-69
2023/09/08 04:34:21;;;;;;;7.63;6.77;;;;;;;;;;4963435;28;20176;-69
2023/09/08 04:36:46;;;;;;;7.80;7.00;;;;;;;;;;4952561;28;20220;-68
2023/09/08 04:39:11;;;;;;;10.33;7.87;;;;;;;;;;4971010;28;20178;-70
2023/09/08 04:41:37;;;;;;;8.43;7.73;;;;;;;;;;4967643;28;20174;-69
2023/09/08 04:44:03;;;;;;;8.83;7.50;;;;;;;;;;4972767;28;20214;-69
2023/09/08 04:46:28;;;;;;;8.20;7.43;;;;;;;;;;4955390;28;20178;-69
2023/09/08 04:48:53;;;;;;;10.30;8.63;;;;;;;;;;4967727;28;20308;-70
2023/09/08 04:51:19;;;;;;;8.43;7.63;;;;;;;;;;4970317;28;20185;-69
2023/09/08 04:53:44;;;;;;;8.27;7.47;;;;;;;;;;4948802;28;20182;-69
2023/09/08 04:56:09;;;;;;;7.90;7.20;;;;;;;;;;4970110;28;20201;-69
2023/09/08 04:58:34;;;;;;;18.33;8.70;;;;;;;;;;4947449;28;20311;-70
2023/09/08 05:00:59;;;;;;;8.00;7.20;;;;;;;;;;4954999;28;20182;-69
2023/09/08 05:03:26;;;;;;;9.00;8.20;;;;;;;;;;4956736;28;20192;-70
2023/09/08 05:05:51;;;;;;;9.57;8.57;;;;;;;;;;4949234;28;20340;-69
2023/09/08 05:08:16;;;;;;;21.90;11.43;;;;;;;;;;4954192;28;20263;-69
2023/09/08 05:10:43;;;;;;;10.83;8.33;;;;;;;;;;4971634;28;20180;-70
2023/09/08 05:13:09;;;;;;;19.73;10.47;;;;;;;;;;4955578;28;20183;-70
2023/09/08 05:15:34;;;;;;;9.07;7.33;;;;;;;;;;4969884;28;20183;-69
2023/09/08 05:18:00;;;;;;;11.00;7.80;;;;;;;;;;4953054;28;20222;-69
2023/09/08 05:20:25;;;;;;;9.33;8.40;;;;;;;;;;4966751;28;20227;-69
2023/09/08 05:22:50;;;;;;;19.30;8.70;;;;;;;;;;4973362;28;20175;-69
2023/09/08 05:25:16;;;;;;;11.80;8.80;;;;;;;;;;4971917;28;20173;-69
2023/09/08 05:27:41;;;;;;;11.73;9.37;;;;;;;;;;4944836;28;20181;-69
2023/09/08 05:30:06;;;;;;;9.23;7.87;;;;;;;;;;4956650;28;20274;-69
2023/09/08 05:32:32;;;;;;;8.07;7.37;;;;;;;;;;4943825;28;20209;-69
2023/09/08 05:34:57;;;;;;;7.87;7.07;;;;;;;;;;4964550;28;20185;-69
2023/09/08 05:37:22;;;;;;;11.43;8.10;;;;;;;;;;4971876;28;20224;-69
2023/09/08 05:39:47;;;;;;;7.30;6.57;;;;;;;;;;4967532;28;20536;-69
2023/09/08 05:42:12;;;;;;;10.93;8.07;;;;;;;;;;4954877;28;20181;-69
2023/09/08 05:44:39;;;;;;;13.57;8.07;;;;;;;;;;4953548;28;20245;-70
2023/09/08 05:47:05;;;;;;;9.23;8.43;;;;;;;;;;4953795;28;20196;-69
2023/09/08 05:49:30;;;;;;;9.97;8.50;;;;;;;;;;4952555;28;20325;-69
2023/09/08 05:51:55;;;;;;;10.07;8.23;;;;;;;;;;4969074;28;20272;-69
2023/09/08 05:54:20;;;;;;;8.00;7.23;;;;;;;;;;4969754;28;20183;-69
2023/09/08 05:56:45;;;;;;;7.60;6.90;;;;;;;;;;4955452;28;20201;-69
2023/09/08 05:59:11;;;;;;;28.97;10.23;;;;;;;;;;4971041;28;20181;-70
2023/09/08 06:01:36;;;;;;;7.20;6.50;;;;;;;;;;4954975;28;20202;-69
2023/09/08 06:04:01;;;;;;;52.83;17.40;;;;;;;;;;4969306;28;20209;-69
2023/09/08 06:06:28;;;;;;;18.90;9.57;;;;;;;;;;4966981;28;20296;-70
2023/09/08 06:08:53;;;;;;;8.37;7.37;;;;;;;;;;4971195;28;20172;-71
2023/09/08 06:11:18;;;;;;;11.63;7.97;;;;;;;;;;4969607;28;20191;-70
2023/09/08 06:13:43;;;;;;;16.07;10.00;;;;;;;;;;4953903;28;20183;-69
2023/09/08 06:16:09;;;;;;;8.80;7.60;;;;;;;;;;4966720;28;20268;-69
2023/09/08 06:18:39;;;;;;;9.77;8.70;;;;;;;;;;4948425;28;20219;-70
2023/09/08 06:21:05;;;;;;;11.70;9.67;;;;;;;;;;4968999;28;20215;-69
2023/09/08 06:23:30;;;;;;;19.07;9.20;;;;;;;;;;4951078;28;20664;-69
2023/09/08 06:25:59;;;;;;;13.80;7.87;;;;;;;;;;4962424;28;20183;-69
2023/09/08 06:28:25;;;;;;;11.93;8.60;;;;;;;;;;4965794;28;20264;-69
2023/09/08 06:30:50;;;;;;;19.20;9.43;;;;;;;;;;4975654;28;20268;-70
2023/09/08 06:33:15;;;;;;;13.77;7.80;;;;;;;;;;4964671;28;20188;-74
2023/09/08 06:35:40;;;;;;;13.40;7.60;;;;;;;;;;4952900;28;20216;-73
2023/09/08 06:38:06;;;;;;;10.83;8.40;;;;;;;;;;4954006;28;20193;-69
2023/09/08 06:40:31;;;;;;;9.47;8.30;;;;;;;;;;4970358;28;20174;-69
2023/09/08 06:42:56;;;;;;;9.07;8.27;;;;;;;;;;4966235;28;20200;-70
2023/09/08 06:45:22;;;;;;;10.53;8.33;;;;;;;;;;4951836;28;20206;-69
2023/09/08 06:47:48;;;;;;;11.70;8.10;;;;;;;;;;4970611;28;20275;-70
2023/09/08 06:50:14;;;;;;;10.90;8.43;;;;;;;;;;4970697;28;20229;-70
2023/09/08 06:52:39;;;;;;;19.47;8.43;;;;;;;;;;4948100;28;20196;-69
2023/09/08 06:55:05;;;;;;;8.20;7.50;;;;;;;;;;4969086;28;20181;-70
2023/09/08 06:57:30;;;;;;;9.67;7.80;;;;;;;;;;4969819;28;20291;-69
2023/09/08 06:59:55;;;;;;;8.60;7.83;;;;;;;;;;4954321;28;20190;-69
2023/09/08 07:02:20;;;;;;;8.73;7.63;;;;;;;;;;4952207;28;20183;-70
2023/09/08 07:04:45;;;;;;;123.77;26.93;;;;;;;;;;4965016;28;20202;-69
2023/09/08 07:07:11;;;;;;;12.27;8.83;;;;;;;;;;4966703;28;20182;-69
2023/09/08 07:09:36;;;;;;;7.53;6.73;;;;;;;;;;4953839;28;20179;-70
2023/09/08 07:12:02;;;;;;;7.87;7.07;;;;;;;;;;4965825;28;20203;-70
2023/09/08 07:14:27;;;;;;;9.13;7.47;;;;;;;;;;4953887;28;20238;-69
2023/09/08 07:16:52;;;;;;;19.70;8.60;;;;;;;;;;4952622;28;20202;-70
2023/09/08 07:19:18;;;;;;;11.80;7.77;;;;;;;;;;4949771;28;20186;-70
2023/09/08 07:21:43;;;;;;;13.90;7.80;;;;;;;;;;4964068;28;20263;-69
2023/09/08 07:24:08;;;;;;;7.83;7.03;;;;;;;;;;4962941;28;20227;-69
2023/09/08 07:26:33;;;;;;;12.40;8.17;;;;;;;;;;4964944;28;20183;-70
2023/09/08 07:28:59;;;;;;;18.23;9.40;;;;;;;;;;4954066;28;20266;-69
2023/09/08 07:31:24;;;;;;;8.80;8.00;;;;;;;;;;4976803;28;20181;-70
2023/09/08 07:33:49;;;;;;;29.40;10.33;;;;;;;;;;4968079;28;20282;-69
2023/09/08 07:36:15;;;;;;;8.77;7.87;;;;;;;;;;4978104;28;20177;-70
2023/09/08 07:38:40;;;;;;;8.47;7.57;;;;;;;;;;4955183;28;20296;-70
2023/09/08 07:41:05;;;;;;;25.03;8.87;;;;;;;;;;4973598;28;20192;-69
2023/09/08 07:43:30;;;;;;;11.37;7.53;;;;;;;;;;4956327;28;20271;-69
2023/09/08 07:45:56;;;;;;;11.73;7.30;;;;;;;;;;4955414;28;20267;-69
2023/09/08 07:48:21;;;;;;;7.47;6.77;;;;;;;;;;4955126;28;20232;-70
2023/09/08 07:50:46;;;;;;;7.80;7.00;;;;;;;;;;4951659;28;20268;-70
2023/09/08 07:53:11;;;;;;;8.77;7.97;;;;;;;;;;4952878;28;20205;-69
2023/09/08 07:55:37;;;;;;;9.23;8.00;;;;;;;;;;4951578;28;20179;-70
2023/09/08 07:58:05;;;;;;;8.57;7.33;;;;;;;;;;4950892;28;20292;-70
2023/09/08 08:00:34;;;;;;;7.53;6.82;;;;;;;;;;4951097;28;20180;-70
2023/09/08 08:02:59;;;;;;;7.47;6.60;;;;;;;;;;4954204;28;20177;-70
2023/09/08 08:05:25;;;;;;;8.05;7.25;;;;;;;;;;4951881;28;20192;-70
2023/09/08 08:07:50;;;;;;;8.32;6.88;;;;;;;;;;4949432;28;20192;-70
2023/09/08 08:10:16;;;;;;;11.73;8.10;;;;;;;;;;4951583;28;20280;-69
2023/09/08 08:12:42;;;;;;;7.70;6.95;;;;;;;;;;4953382;28;20205;-69
2023/09/08 08:15:09;;;;;;;8.13;7.07;;;;;;;;;;4951572;28;20187;-70
2023/09/08 08:17:35;;;;;;;8.60;7.80;;;;;;;;;;4950128;28;20213;-70
2023/09/08 08:20:06;;;;;;;7.90;7.20;;;;;;;;;;4953742;28;20174;-70
2023/09/08 08:22:32;;;;;;;8.30;7.20;;;;;;;;;;4950251;28;20254;-69
2023/09/08 08:24:57;;;;;;;8.93;7.65;;;;;;;;;;4950081;28;20279;-69
2023/09/08 08:27:22;;;;;;;7.65;7.05;;;;;;;;;;4954037;28;20177;-70
2023/09/08 08:29:47;;;;;;;10.98;7.03;;;;;;;;;;4952829;28;20185;-70
2023/09/08 08:32:13;;;;;;;15.43;7.40;;;;;;;;;;4947690;28;20213;-69
2023/09/08 08:34:39;;;;;;;8.65;6.72;;;;;;;;;;4948329;28;20178;-74
2023/09/08 08:37:04;;;;;;;7.75;7.10;;;;;;;;;;4948826;28;20209;-75
2023/09/08 08:39:29;;;;;;;8.05;6.38;;;;;;;;;;4951870;28;20205;-75
2023/09/08 08:41:54;;;;;;;7.22;6.55;;;;;;;;;;4949499;28;20170;-74
2023/09/08 08:44:20;;;;;;;8.35;7.43;;;;;;;;;;4951253;28;20196;-75
2023/09/08 08:46:46;;;;;;;11.43;7.57;;;;;;;;;;4953805;28;20181;-75
2023/09/08 08:49:14;;;;;;;7.97;7.30;;;;;;;;;;4952155;28;20237;-75
2023/09/08 08:51:39;;;;;;;9.07;7.38;;;;;;;;;;4948046;28;20184;-74
2023/09/08 08:54:05;;;;;;;7.93;6.68;;;;;;;;;;4954414;28;20174;-75
2023/09/08 08:56:31;;;;;;;9.05;7.13;;;;;;;;;;4951236;28;20177;-74
2023/09/08 08:58:57;;;;;;;7.30;6.70;;;;;;;;;;4951690;28;20185;-75
2023/09/08 09:01:24;;;;;;;7.40;6.70;;;;;;;;;;4946910;28;20169;-75
2023/09/08 09:03:50;;;;;;;7.43;6.80;;;;;;;;;;4951674;28;20185;-75
2023/09/08 09:06:15;;;;;;;9.82;7.15;;;;;;;;;;4952217;28;20182;-74
2023/09/08 09:08:43;;;;;;;8.35;7.38;;;;;;;;;;4944169;28;20196;-75
2023/09/08 09:11:09;;;;;;;7.82;7.13;;;;;;;;;;4950905;28;20178;-75
2023/09/08 09:13:34;;;;;;;7.13;6.63;;;;;;;;;;4948888;28;20177;-74
2023/09/08 09:16:01;;;;;;;7.72;7.10;;;;;;;;;;4950989;28;20281;-74
2023/09/08 09:18:29;;;;;;;8.48;7.68;;;;;;;;;;4952767;28;20201;-74
2023/09/08 09:20:55;;;;;;;8.07;7.38;;;;;;;;;;4950899;28;20264;-75
2023/09/08 09:23:31;;;;;;;7.78;6.97;;;;;;;;;;4953283;28;20177;-75
2023/09/08 09:25:56;;;;;;;10.25;7.72;;;;;;;;;;4950569;29;20228;-75
2023/09/08 09:28:22;;;;;;;8.75;7.10;;;;;;;;;;4952989;28;20175;-74
2023/09/08 09:30:48;;;;;;;8.50;7.63;;;;;;;;;;4949503;28;20182;-75
2023/09/08 09:33:14;;;;;;;20.95;7.43;;;;;;;;;;4945162;28;20298;-75
2023/09/08 09:35:50;;;;;;;7.60;6.90;;;;;;;;;;4954472;28;20236;-75
2023/09/08 09:38:16;;;;;;;9.07;7.50;;;;;;;;;;4950971;28;20201;-75
2023/09/08 09:40:41;;;;;;;8.63;7.57;;;;;;;;;;4949016;28;20186;-75
2023/09/08 09:43:08;;;;;;;8.43;7.00;;;;;;;;;;4950241;28;20180;-75
2023/09/08 09:45:33;;;;;;;7.05;6.35;;;;;;;;;;4952016;28;20182;-75
2023/09/08 09:47:59;;;;;;;7.80;6.93;;;;;;;;;;4953065;28;20197;-75
2023/09/08 09:50:31;;;;;;;7.65;6.75;;;;;;;;;;4969071;28;20185;-75
2023/09/08 09:53:00;;;;;;;7.57;6.95;;;;;;;;;;4970047;28;20181;-75
2023/09/08 09:55:27;;;;;;;8.40;7.53;;;;;;;;;;4960885;28;20177;-83
2023/09/08 09:57:57;;;;;;;8.02;6.90;;;;;;;;;;4950153;28;20232;-74
2023/09/08 10:00:23;;;;;;;7.32;6.82;;;;;;;;;;4968429;28;20182;-75
2023/09/08 10:02:49;;;;;;;7.80;7.10;;;;;;;;;;4966953;28;20260;-75
2023/09/08 10:05:15;;;;;;;7.90;7.10;;;;;;;;;;4968978;28;20193;-75
2023/09/08 10:07:40;;;;;;;7.70;6.90;;;;;;;;;;4957440;28;20213;-74
2023/09/08 10:10:06;;;;;;;7.22;6.63;;;;;;;;;;4948009;28;20176;-75
2023/09/08 10:12:34;;;;;;;10.18;7.38;;;;;;;;;;4961905;28;20216;-74
2023/09/08 10:15:02;;;;;;;8.93;8.02;;;;;;;;;;4953296;28;20177;-74
2023/09/08 10:17:30;;;;;;;7.10;6.32;;;;;;;;;;4965639;28;20188;-74
2023/09/08 10:19:56;;;;;;;8.27;7.55;;;;;;;;;;4963424;28;20205;-74
2023/09/08 10:22:25;;;;;;;7.60;6.90;;;;;;;;;;4947899;28;20272;-75
2023/09/08 10:24:53;;;;;;;7.50;6.80;;;;;;;;;;4964211;28;20257;-74
2023/09/08 10:27:21;;;;;;;8.15;7.45;;;;;;;;;;4953753;28;20177;-74
2023/09/08 10:29:47;;;;;;;7.93;7.22;;;;;;;;;;4948610;28;20177;-74
2023/09/08 10:32:12;;;;;;;8.10;7.25;;;;;;;;;;4955245;28;20183;-74
2023/09/08 10:34:38;;;;;;;9.07;6.78;;;;;;;;;;4948885;28;20180;-74
2023/09/08 10:37:17;;;;;;;8.10;7.32;;;;;;;;;;4967879;28;20197;-74
2023/09/08 10:39:45;;;;;;;8.98;8.10;;;;;;;;;;4966629;28;20270;-74
2023/09/08 10:42:17;;;;;;;8.10;7.30;;;;;;;;;;4946743;28;20324;-74
2023/09/08 10:44:43;;;;;;;8.23;7.45;;;;;;;;;;4966694;28;20188;-74
2023/09/08 10:47:09;;;;;;;10.93;9.10;;;;;;;;;;4950579;28;20216;-74
2023/09/08 10:49:38;;;;;;;8.82;8.13;;;;;;;;;;4940936;28;20237;-74
2023/09/08 10:52:10;;;;;;;9.98;7.30;;;;;;;;;;4946275;28;20227;-75
2023/09/08 10:54:45;;;;;;;11.57;7.80;;;;;;;;;;4964376;28;20276;-74
2023/09/08 10:57:14;;;;;;;8.07;7.38;;;;;;;;;;4946972;28;20215;-75
2023/09/08 10:59:40;;;;;;;8.68;7.85;;;;;;;;;;4950150;28;20180;-74
2023/09/08 11:02:05;;;;;;;12.55;8.30;;;;;;;;;;4948432;28;20429;-75
2023/09/08 11:04:32;;;;;;;8.20;7.40;;;;;;;;;;4949956;28;20176;-74
2023/09/08 11:06:57;;;;;;;9.00;8.10;;;;;;;;;;4966353;28;20220;-74
2023/09/08 11:09:23;;;;;;;8.77;7.88;;;;;;;;;;4952912;28;20223;-74
2023/09/08 11:11:49;;;;;;;51.60;11.82;;;;;;;;;;4968528;28;20227;-74
2023/09/08 11:14:15;;;;;;;8.48;7.68;;;;;;;;;;4968263;28;20181;-74
2023/09/08 11:16:40;;;;;;;9.00;8.00;;;;;;;;;;4951004;28;20287;-74
2023/09/08 11:19:05;;;;;;;8.50;7.32;;;;;;;;;;4952018;28;20174;-74
2023/09/08 11:21:34;;;;;;;8.85;8.02;;;;;;;;;;4951883;28;20192;-74
2023/09/08 11:24:01;;;;;;;7.35;6.75;;;;;;;;;;4969535;28;20200;-74
2023/09/08 11:26:27;;;;;;;9.38;8.57;;;;;;;;;;4969934;28;20270;-74
2023/09/08 11:28:53;;;;;;;8.25;7.45;;;;;;;;;;4972419;28;20184;-74
2023/09/08 11:31:18;;;;;;;8.23;7.38;;;;;;;;;;4970120;28;20172;-74
2023/09/08 11:33:44;;;;;;;181.95;23.35;;;;;;;;;;4949409;28;20188;-74
2023/09/08 11:36:15;;;;;;;8.80;7.90;;;;;;;;;;4952626;28;20267;-74
2023/09/08 11:38:42;;;;;;;8.93;8.13;;;;;;;;;;4968905;28;20204;-75
2023/09/08 11:41:07;;;;;;;7.80;7.10;;;;;;;;;;4968432;28;20180;-75
2023/09/08 11:43:34;;;;;;;9.10;8.02;;;;;;;;;;4945951;28;21944;-74
2023/09/08 11:45:59;;;;;;;8.27;7.55;;;;;;;;;;4950521;28;20249;-75
2023/09/08 11:48:25;;;;;;;17.33;9.55;;;;;;;;;;4949192;28;20252;-75
2023/09/08 11:50:53;;;;;;;8.48;7.68;;;;;;;;;;4946214;29;20184;-74
2023/09/08 11:53:19;;;;;;;9.25;7.97;;;;;;;;;;4945931;28;20257;-75
2023/09/08 11:55:44;;;;;;;9.00;7.97;;;;;;;;;;4962524;28;20196;-74
2023/09/08 11:58:09;;;;;;;7.82;7.13;;;;;;;;;;4952732;28;20197;-74
2023/09/08 12:00:37;;;;;;;7.93;7.20;;;;;;;;;;4966451;28;20180;-75
2023/09/08 12:03:10;;;;;;;8.20;7.50;;;;;;;;;;4955288;28;20165;-74
2023/09/08 12:05:35;;;;;;;8.82;8.02;;;;;;;;;;4955726;28;20317;-75
2023/09/08 12:08:04;;;;;;;8.63;7.95;;;;;;;;;;4955891;28;20200;-75
2023/09/08 12:10:30;;;;;;;8.85;7.97;;;;;;;;;;4948759;28;20264;-74
2023/09/08 12:12:59;;;;;;;8.27;7.57;;;;;;;;;;4969190;28;20320;-74
2023/09/08 12:15:35;;;;;;;10.48;8.55;;;;;;;;;;4953154;28;20268;-74
2023/09/08 12:18:11;;;;;;;7.82;7.13;;;;;;;;;;4970866;28;20200;-74
2023/09/08 12:20:37;;;;;;;8.25;7.10;;;;;;;;;;4951415;28;20189;-74
2023/09/08 12:23:07;;;;;;;8.63;7.68;;;;;;;;;;4953791;28;20169;-74
2023/09/08 12:25:33;;;;;;;8.10;7.38;;;;;;;;;;4966674;28;20177;-74
2023/09/08 12:27:59;;;;;;;11.23;7.13;;;;;;;;;;4953070;28;20207;-74
2023/09/08 12:30:29;;;;;;;7.72;7.03;;;;;;;;;;4954780;28;20189;-74
2023/09/08 12:32:56;;;;;;;7.85;7.15;;;;;;;;;;4971422;28;20175;-74
2023/09/08 12:35:24;;;;;;;8.65;7.15;;;;;;;;;;4965756;28;20173;-74
2023/09/08 12:38:08;;;;;;;8.25;7.50;;;;;;;;;;4947326;28;20209;-74
2023/09/08 12:40:35;;;;;;;10.75;7.38;;;;;;;;;;4967084;28;20211;-74
2023/09/08 12:43:02;;;;;;;8.80;7.78;;;;;;;;;;4953631;28;20255;-85
2023/09/08 12:45:27;;;;;;;7.15;6.45;;;;;;;;;;4951931;28;20177;-74
2023/09/08 12:47:54;;;;;;;7.45;6.82;;;;;;;;;;4967658;28;20212;-74
2023/09/08 12:50:20;;;;;;;8.48;7.57;;;;;;;;;;4950047;28;20188;-74
2023/09/08 12:52:45;;;;;;;11.07;7.38;;;;;;;;;;4970142;28;20243;-74
2023/09/08 12:55:10;;;;;;;7.63;7.00;;;;;;;;;;4955494;28;20189;-74
2023/09/08 12:57:36;;;;;;;7.53;6.93;;;;;;;;;;4970725;28;20203;-74
2023/09/08 13:00:02;;;;;;;8.02;7.43;;;;;;;;;;4956010;28;20173;-74
2023/09/08 13:02:27;;;;;;;7.60;7.00;;;;;;;;;;4966893;28;20173;-74
2023/09/08 13:04:54;;;;;;;7.45;6.95;;;;;;;;;;4947059;28;20187;-74
2023/09/08 13:07:19;;;;;;;8.18;7.07;;;;;;;;;;4970211;28;20181;-74
2023/09/08 13:09:45;;;;;;;7.57;6.97;;;;;;;;;;4953878;28;20181;-74
2023/09/08 13:12:11;;;;;;;9.95;7.45;;;;;;;;;;4972537;28;20212;-74
2023/09/08 13:14:36;;;;;;;7.80;7.10;;;;;;;;;;4950019;28;20259;-74
2023/09/08 13:17:02;;;;;;;8.50;7.45;;;;;;;;;;4972885;28;20192;-75
2023/09/08 13:19:27;;;;;;;8.95;8.07;;;;;;;;;;4953473;28;20174;-74
2023/09/08 13:21:52;;;;;;;8.10;7.40;;;;;;;;;;4957182;28;20267;-74
2023/09/08 13:24:19;;;;;;;8.05;7.25;;;;;;;;;;4968565;28;20180;-75
2023/09/08 13:26:44;;;;;;;8.27;7.50;;;;;;;;;;4969084;28;20256;-74
2023/09/08 13:29:09;;;;;;;9.52;7.70;;;;;;;;;;4955564;28;20284;-74
2023/09/08 13:31:34;;;;;;;8.40;7.55;;;;;;;;;;4969941;28;20291;-74
2023/09/08 13:33:59;;;;;;;8.32;7.22;;;;;;;;;;4972979;28;20260;-75
2023/09/08 13:36:25;;;;;;;7.78;7.00;;;;;;;;;;4970977;28;20239;-75
2023/09/08 13:38:50;;;;;;;7.65;6.90;;;;;;;;;;4970436;28;20189;-74
2023/09/08 13:41:15;;;;;;;7.95;7.25;;;;;;;;;;4950403;28;20173;-74
2023/09/08 13:43:40;;;;;;;7.57;6.97;;;;;;;;;;4957647;28;20183;-74
2023/09/08 13:46:05;;;;;;;8.20;7.40;;;;;;;;;;4950554;28;20173;-75
2023/09/08 13:48:31;;;;;;;8.68;7.97;;;;;;;;;;4950043;28;20478;-75
2023/09/08 13:51:00;;;;;;;7.90;7.20;;;;;;;;;;4950389;28;20185;-74
2023/09/08 13:53:26;;;;;;;7.20;6.60;;;;;;;;;;4969624;28;20268;-74
2023/09/08 13:55:51;;;;;;;7.68;7.07;;;;;;;;;;4955569;28;20263;-74
2023/09/08 13:58:16;;;;;;;8.05;7.35;;;;;;;;;;4965793;28;20220;-75
2023/09/08 14:00:41;;;;;;;8.87;8.07;;;;;;;;;;4968288;28;20195;-74
2023/09/08 14:03:06;;;;;;;9.27;8.38;;;;;;;;;;4968905;28;20415;-74
2023/09/08 14:05:32;;;;;;;8.30;7.50;;;;;;;;;;4967661;28;20173;-75
2023/09/08 14:07:57;;;;;;;7.80;7.07;;;;;;;;;;4954145;28;20181;-74
2023/09/08 14:10:23;;;;;;;8.20;7.43;;;;;;;;;;4950028;28;20181;-75
2023/09/08 14:12:48;;;;;;;7.97;7.38;;;;;;;;;;4950230;28;20212;-75
2023/09/08 14:15:16;;;;;;;10.63;7.82;;;;;;;;;;4970039;28;20176;-74
2023/09/08 14:17:41;;;;;;;7.43;6.88;;;;;;;;;;4952834;28;20204;-74
2023/09/08 14:20:07;;;;;;;10.57;7.60;;;;;;;;;;4965598;28;20228;-74
2023/09/08 14:22:32;;;;;;;7.75;7.20;;;;;;;;;;4954905;28;20179;-74
2023/09/08 14:24:58;;;;;;;8.35;7.47;;;;;;;;;;4969199;28;20248;-74
2023/09/08 14:27:23;;;;;;;8.20;7.35;;;;;;;;;;4970394;28;20208;-75
2023/09/08 14:29:48;;;;;;;7.65;7.07;;;;;;;;;;4949250;28;20247;-74
2023/09/08 14:32:13;;;;;;;8.30;7.65;;;;;;;;;;4944818;28;20173;-74
2023/09/08 14:34:39;;;;;;;9.18;8.38;;;;;;;;;;4962456;28;20211;-75